Nevada City, CA (95959)

7:59 AM PST on February 28, 2015 (GMT -0800)
Starlite Acres | Change Station
CLOSE
Current Station
Personal Weather Station
Location: Nevada City, CA
Elevation: 2350 ft
Nearby Weather Stations

Elev 2350 ft 39.25 °N, 121.08 °W | Updated 16 seconds ago

Overcast
Overcast
40.0 °F
Feels Like 40 °F
N
0.0
Wind Variable Wind from NE
Gusts 3.0 mph

Today
High -- | Low -- °F
--% Chance of Precip.
Yesterday
High -- | Low -- °F
Precip. -- in
6:38 AM 5:55 PM
Waxing Gibbous, 78% visible
Pressure 29.72 in
Visibility 1.8 miles
Clouds Overcast 500 ft
Windchill 40 °F
Dew Point 37 °F
Humidity 90%
Rainfall 0.07 in
Snow Depth Not available.
UV 0.0 out of 12
Pollen 4.80 out of 12
Air Quality Not available.
Flu Activity Not available.
METAR KGOO 281540Z AUTO 13006KT 1 3/4SM OVC005 02/02 A2972 RMK AO1 P0008

More Conditions Fewer Conditions

Pressure 29.72 in
Visibility 1.8 miles
Clouds Overcast 500 ft
Windchill 40 °F
Dew Point 37 °F
Humidity 90%
Rainfall 0.07 in
Snow Depth Not available.
UV 0.0 out of 12
Pollen 4.80 out of 12
Air Quality Not available.
Flu Activity Not available.
METAR KGOO 281540Z AUTO 13006KT 1 3/4SM OVC005 02/02 A2972 RMK AO1 P0008

More Conditions Fewer Conditions

10-Day Weather Forecast

Almanac

Astronomy

Feb. 28, 2015 Rise Set
Actual Time
Civil Twilight
Nautical Twilight
Astronomical Twilight
Moon
Length of Visible Light
Length of Day
Tomorrow will be .
, % of the Moon is Illuminated

Today's Extremes

State Highs State Lows

Community

WunderPhotos

Upload Photos

1,801,055 photos uploaded!

WunderBlogs® & News

Nearby

Air Quality

  Air Quality AQ Index Pollutant
Not available.

Snow Depth

Station Depth Elevation

Earthquake Activity

City Distance Mag. Time & Date
Minimum magnitude displayed is 2.5.

Coastal Water Temperatures

Place Temperature

Nearby Weather Stations